Lawrenceville, Arkansas
Current Conditions -  °F | °C
As of 6:15 AM on Friday 28 Nov 2014 (Local Time) from KSGT Reporting Station
Clear Clear  
Wind Chill: 30°   Ceiling: Unl
Heat Index: 36°   Visibility: 10mi
Dew Point: 28°   Wind: 7mph
Humidity: 75%   Direction: 140°SE
Pressure: 30.38"   Gusts: NA
Location:  34.5919°N, 91.1409°W
Report Text: KSGT 281215Z AUTO 14006KT 10SM CLR 02/M02 A3038 RMK AO1
Loading
Personal Weather Stations






























Interactive Weather Map New forecast layout! Learn more

10-Day Weather Forecast

Advertisements
Track Severe Weather on mobile